Bruce Township, Michigan
Current Conditions -  °F | °C
As of 3:41 AM on Tuesday 21 Oct 2014 (Local Time) from KMTC Reporting Station
Light Rain Light Rain  
Wind Chill: 46°   Ceiling: 1400
Heat Index: 48°   Visibility: 10mi
Dew Point: 48°   Wind: 6mph
Humidity: 100%   Direction: 330°NNW
Pressure: 29.86"   Gusts: NA
Location:  42.8454°N, 83.0393°W
Report Text: KMTC 210741Z AUTO 33005KT 10SM -RA BKN014 OVC019 09/09 A2986 RMK AO2 CIG 014V018
Loading
Personal Weather Stations






























Interactive Weather Map
Tropical Storm Tracking
New forecast layout! Learn more

10-Day Weather Forecast

Advertisements
Track Severe Weather on mobile